KVNY/VNY METAR and TAF weather

Enter ICAO airport designator
Station Type Date Time Source
KVNY METAR 2019/02/23 00:51 UTC NOAA

KVNY 230051Z 27008G16KT 10SM CLR 15/M07 A3003 RMK AO2 SLP168 T01501067


Station Type Date Time Source
KVNY Decoded METAR 2019/02/23 00:51 UTC NOAA

VAN NUYS AIRPORT, CA, United States (KVNY) 34-13N 118-29W 245M
Feb 22, 2019 - 07:51 PM EST / 2019.02.23 0051 UTC
Wind: from the W (270 degrees) at 9 MPH (8 KT) gusting to 18 MPH (16 KT):0
Visibility: 10 mile(s):0
Sky conditions: clear
Temperature: 59.0 F (15.0 C)
Dew Point: 19.9 F (-6.7 C)
Relative Humidity: 21%
Pressure (altimeter): 30.03 in. Hg (1016 hPa)
ob: KVNY 230051Z 27008G16KT 10SM CLR 15/M07 A3003 RMK AO2 SLP168 T01501067
cycle: 1

Station Type Date Time Source
KVNY TAF 2019/02/22 18:33 UTC NOAA

TAF KVNY 221731Z 2218/2318 35013KT P6SM SKC
FM222000 01007KT P6SM SKC
FM222300 32008KT P6SM SKC
FM230400 VRB03KT P6SM SKC


Example: see airport list